createdAt,value
2018-02-10T00:00:00.356Z,75.77
2018-02-10T00:02:36.901Z,73.60
2018-02-10T00:05:10.654Z,73.27
2018-02-10T00:07:44.190Z,85.10
2018-02-10T00:10:17.812Z,73.20
2018-02-10T00:12:51.603Z,76.93
2018-02-10T00:15:26.354Z,75.13
2018-02-10T00:18:00.009Z,72.00
2018-02-10T00:20:34.638Z,74.10
2018-02-10T00:23:09.058Z,69.03
2018-02-10T00:25:43.778Z,74.67
2018-02-10T00:28:17.923Z,72.57
2018-02-10T00:30:52.575Z,71.37
2018-02-10T00:33:27.204Z,68.77
2018-02-10T00:36:00.759Z,68.90
2018-02-10T00:38:34.558Z,71.47
2018-02-10T00:41:09.382Z,74.90
2018-02-10T00:43:43.159Z,73.70
2018-02-10T00:46:17.416Z,76.93
2018-02-10T00:48:51.359Z,76.67
2018-02-10T00:51:25.170Z,73.87
2018-02-10T00:53:59.763Z,71.03
2018-02-10T00:56:33.754Z,82.03
2018-02-10T00:59:08.244Z,78.03
2018-02-10T01:01:42.087Z,69.40
2018-02-10T01:04:15.691Z,79.23
2018-02-10T01:06:50.386Z,78.20
2018-02-10T01:09:24.975Z,78.63
2018-02-10T01:11:58.715Z,71.07
2018-02-10T01:14:32.460Z,82.17
2018-02-10T01:17:06.318Z,77.73
2018-02-10T01:19:40.260Z,76.80
2018-02-10T01:22:13.991Z,80.70
2018-02-10T01:24:48.497Z,77.43
2018-02-10T01:27:22.289Z,80.27
2018-02-10T01:29:56.446Z,82.43
2018-02-10T01:32:30.302Z,76.40
2018-02-10T01:35:05.049Z,77.13
2018-02-10T01:37:38.790Z,70.90
2018-02-10T01:40:13.382Z,68.80
2018-02-10T01:42:47.352Z,79.03
2018-02-10T01:45:21.273Z,71.27
2018-02-10T01:47:55.711Z,75.17
2018-02-10T01:50:30.722Z,80.57
2018-02-10T01:53:04.437Z,77.80
2018-02-10T01:55:38.543Z,78.23
2018-02-10T01:58:12.373Z,71.90
2018-02-10T02:00:46.068Z,75.07
2018-02-10T02:03:19.719Z,77.40
2018-02-10T02:05:53.535Z,76.67
2018-02-10T02:08:28.374Z,77.87
2018-02-10T02:11:02.263Z,84.43
2018-02-10T02:13:36.005Z,79.67
2018-02-10T02:16:09.756Z,74.63
2018-02-10T02:18:43.508Z,72.67
2018-02-10T02:21:18.087Z,75.57
2018-02-10T02:23:51.815Z,80.07
2018-02-10T02:26:26.414Z,75.20
2018-02-10T02:29:00.196Z,83.70
2018-02-10T02:31:34.075Z,74.10
2018-02-10T02:34:08.872Z,73.50
2018-02-10T02:36:42.924Z,75.00
2018-02-10T02:39:17.775Z,77.77
2018-02-10T02:41:52.344Z,79.10
2018-02-10T02:44:27.066Z,73.33
2018-02-10T02:47:00.900Z,84.13
2018-02-10T02:49:35.809Z,84.93
2018-02-10T02:52:09.499Z,86.23
2018-02-10T02:54:43.498Z,77.77
2018-02-10T02:57:17.178Z,82.67
2018-02-10T02:59:50.947Z,77.90
2018-02-10T03:02:24.620Z,77.23
2018-02-10T03:04:59.028Z,74.17
2018-02-10T03:07:32.662Z,79.10
2018-02-10T03:10:06.443Z,79.27
2018-02-10T03:12:40.419Z,72.90
2018-02-10T03:15:14.123Z,71.13
2018-02-10T03:17:48.777Z,72.03
2018-02-10T03:20:23.323Z,74.60
2018-02-10T03:22:58.228Z,74.93
2018-02-10T03:25:32.232Z,73.43
2018-02-10T03:28:05.843Z,70.53
2018-02-10T03:30:39.515Z,70.20
2018-02-10T03:33:13.253Z,70.63
2018-02-10T03:35:46.952Z,77.67
2018-02-10T03:38:20.830Z,72.90
2018-02-10T03:40:54.784Z,75.50
2018-02-10T03:43:28.691Z,73.57
2018-02-10T03:46:02.752Z,65.80
2018-02-10T03:48:36.428Z,67.13
2018-02-10T03:51:10.703Z,70.67
2018-02-10T03:53:44.711Z,83.23
2018-02-10T03:56:18.325Z,70.63
2018-02-10T03:58:52.526Z,71.80
2018-02-10T04:01:26.475Z,66.83
2018-02-10T04:04:01.024Z,74.00
2018-02-10T04:06:34.983Z,70.37
2018-02-10T04:09:09.286Z,63.67
2018-02-10T04:11:43.738Z,65.40
2018-02-10T04:14:18.434Z,78.33
2018-02-10T04:16:52.154Z,61.70
2018-02-10T04:19:25.743Z,72.43
2018-02-10T04:22:00.581Z,71.93
2018-02-10T04:24:34.658Z,69.13
2018-02-10T04:27:08.388Z,63.97
2018-02-10T04:29:42.852Z,67.07
2018-02-10T04:32:17.526Z,67.57
2018-02-10T04:34:51.140Z,75.30
2018-02-10T04:37:24.935Z,70.97
2018-02-10T04:39:59.359Z,72.40
2018-02-10T04:42:34.282Z,74.20
2018-02-10T04:45:08.195Z,71.63
2018-02-10T04:47:42.262Z,74.03
2018-02-10T04:50:16.608Z,70.07
2018-02-10T04:52:50.261Z,70.17
2018-02-10T04:55:23.822Z,72.20
2018-02-10T05:11:05.110Z,68.53
2018-02-10T05:13:39.253Z,65.17
2018-02-10T05:16:13.914Z,64.30
2018-02-10T05:18:47.731Z,70.13
2018-02-10T05:21:21.719Z,69.00
2018-02-10T05:23:56.621Z,69.23
2018-02-10T05:26:31.225Z,69.90
2018-02-10T05:29:04.998Z,64.93
2018-02-10T05:31:39.285Z,72.07
2018-02-10T05:34:14.140Z,62.57
2018-02-10T05:36:48.698Z,66.50
2018-02-10T05:39:23.358Z,64.77
2018-02-10T05:41:57.129Z,65.77
2018-02-10T05:44:31.112Z,67.13
2018-02-10T05:47:05.683Z,68.83
2018-02-10T05:49:39.433Z,64.30
2018-02-10T05:52:13.067Z,65.17
2018-02-10T05:54:46.874Z,70.13
2018-02-10T05:57:20.448Z,68.80
2018-02-10T05:59:54.088Z,66.03
2018-02-10T06:02:27.655Z,63.07
2018-02-10T06:05:01.272Z,70.70
2018-02-10T06:07:34.839Z,63.73
2018-02-10T06:10:08.422Z,63.53
2018-02-10T06:12:42.174Z,67.23
2018-02-10T06:15:15.879Z,74.40
2018-02-10T06:17:49.422Z,70.67
2018-02-10T06:20:28.135Z,69.57
2018-02-10T06:23:01.921Z,70.97
2018-02-10T06:25:35.576Z,69.50
2018-02-10T06:28:09.115Z,66.60
2018-02-10T06:30:43.577Z,71.03
2018-02-10T06:33:17.190Z,67.00
2018-02-10T06:35:50.727Z,70.43
2018-02-10T06:38:24.290Z,65.73
2018-02-10T06:40:57.815Z,66.73
2018-02-10T06:43:31.319Z,68.03
2018-02-10T06:46:04.833Z,62.93
2018-02-10T06:48:38.479Z,67.57
2018-02-10T06:51:12.211Z,62.07
2018-02-10T06:53:45.859Z,69.03
2018-02-10T06:56:19.427Z,68.17
2018-02-10T06:58:53.139Z,61.93
2018-02-10T07:01:27.414Z,73.43
2018-02-10T07:04:01.123Z,68.20
2018-02-10T07:06:35.430Z,65.90
2018-02-10T07:09:09.036Z,74.07
2018-02-10T07:11:42.771Z,70.57
2018-02-10T07:14:16.458Z,69.00
2018-02-10T07:16:50.981Z,71.47
2018-02-10T07:19:24.495Z,66.90
2018-02-10T07:21:57.974Z,63.63
2018-02-10T07:24:31.518Z,62.70
2018-02-10T07:27:05.002Z,69.33
2018-02-10T07:29:38.526Z,61.73
2018-02-10T07:32:12.151Z,62.07
2018-02-10T07:34:45.639Z,68.23
2018-02-10T07:37:19.127Z,59.00
2018-02-10T07:39:52.622Z,66.40
2018-02-10T07:42:26.234Z,65.80
2018-02-10T07:44:59.738Z,66.53
2018-02-10T07:47:34.083Z,65.30
2018-02-10T07:50:07.734Z,72.17
2018-02-10T07:52:41.426Z,71.60
2018-02-10T07:55:15.198Z,69.93
2018-02-10T07:57:48.934Z,68.83
2018-02-10T08:00:23.186Z,65.27
2018-02-10T08:02:56.790Z,72.33
2018-02-10T08:05:30.291Z,68.70
2018-02-10T08:08:03.774Z,61.67
2018-02-10T08:10:37.280Z,66.67
2018-02-10T08:13:10.882Z,63.43
2018-02-10T08:15:44.604Z,67.77
2018-02-10T08:18:18.097Z,67.10
2018-02-10T08:20:51.811Z,65.60
2018-02-10T08:23:26.186Z,59.50
2018-02-10T08:25:59.703Z,57.60
2018-02-10T08:28:33.283Z,64.90
2018-02-10T08:31:07.522Z,62.53
2018-02-10T08:33:40.995Z,63.97
2018-02-10T08:36:14.602Z,62.13
2018-02-10T08:38:48.198Z,59.07
2018-02-10T08:41:22.534Z,62.37
2018-02-10T08:43:56.130Z,59.97
2018-02-10T08:46:29.671Z,62.73
2018-02-10T08:49:03.139Z,61.90
2018-02-10T08:51:38.100Z,64.73
2018-02-10T08:54:11.747Z,61.17
2018-02-10T08:56:45.398Z,59.60
2018-02-10T08:59:19.780Z,60.47
2018-02-10T09:01:53.242Z,62.60
2018-02-10T09:04:27.578Z,60.30
2018-02-10T09:07:01.089Z,66.10
2018-02-10T09:09:34.735Z,63.87
2018-02-10T09:12:08.329Z,74.33
2018-02-10T09:14:41.803Z,64.73
2018-02-10T09:17:15.411Z,61.90
2018-02-10T09:19:48.963Z,60.10
2018-02-10T09:22:22.584Z,56.13
2018-02-10T09:24:56.323Z,55.93
2018-02-10T09:27:29.894Z,56.37
2018-02-10T09:30:03.665Z,54.00
2018-02-10T09:32:37.223Z,55.47
2018-02-10T09:35:10.769Z,54.83
2018-02-10T09:37:44.534Z,53.43
2018-02-10T09:40:18.074Z,56.73
2018-02-10T09:42:51.566Z,58.80
2018-02-10T09:45:25.058Z,58.50
2018-02-10T09:47:58.550Z,54.13
2018-02-10T09:50:32.176Z,50.90
2018-02-10T09:53:05.827Z,54.53
2018-02-10T09:55:39.359Z,49.23
2018-02-10T09:58:13.067Z,52.70
2018-02-10T10:00:46.771Z,53.07
2018-02-10T10:03:21.467Z,49.97
2018-02-10T10:05:55.083Z,51.00
2018-02-10T10:08:29.523Z,53.23
2018-02-10T10:11:02.990Z,52.87
2018-02-10T10:13:36.517Z,52.97
2018-02-10T10:16:10.051Z,54.27
2018-02-10T10:18:43.546Z,53.70
2018-02-10T10:21:17.170Z,49.67
2018-02-10T10:23:51.202Z,58.80
2018-02-10T10:26:25.614Z,51.73
2018-02-10T10:28:59.307Z,51.90
2018-02-10T10:31:33.595Z,50.47
2018-02-10T10:34:07.170Z,50.30
2018-02-10T10:36:40.771Z,53.50
2018-02-10T10:39:14.324Z,51.93
2018-02-10T10:41:48.591Z,49.53
2018-02-10T10:44:22.912Z,51.30
2018-02-10T10:46:56.554Z,51.37
2018-02-10T10:49:30.051Z,55.77
2018-02-10T10:52:03.547Z,51.87
2018-02-10T10:54:37.048Z,51.50
2018-02-10T10:57:10.520Z,57.73
2018-02-10T10:59:44.035Z,56.70
2018-02-10T11:02:17.629Z,60.93
2018-02-10T11:04:51.266Z,59.40
2018-02-10T11:07:24.782Z,54.10
2018-02-10T11:09:58.434Z,56.53
2018-02-10T11:12:31.911Z,54.90
2018-02-10T11:15:05.386Z,52.00
2018-02-10T11:17:38.997Z,50.33
2018-02-10T11:20:12.719Z,52.50
2018-02-10T11:22:46.322Z,55.47
2018-02-10T11:25:19.801Z,53.90
2018-02-10T11:27:53.286Z,48.40
2018-02-10T11:30:27.391Z,49.77
2018-02-10T11:33:00.871Z,54.27
2018-02-10T11:35:34.591Z,54.53
2018-02-10T11:38:08.211Z,47.53
2018-02-10T11:40:41.914Z,53.73
2018-02-10T11:43:15.382Z,51.73
2018-02-10T11:45:49.831Z,42.10
2018-02-10T11:48:23.531Z,49.17
2018-02-10T11:50:57.025Z,51.50
2018-02-10T11:53:30.654Z,44.80
2018-02-10T11:56:04.157Z,46.17
2018-02-10T11:58:37.671Z,44.10
2018-02-10T12:01:11.249Z,41.13
2018-02-10T12:03:44.743Z,41.83
2018-02-10T12:06:18.290Z,42.23
2018-02-10T12:08:51.963Z,42.30
2018-02-10T12:11:26.267Z,40.93
2018-02-10T12:14:00.588Z,37.37
2018-02-10T12:16:34.060Z,34.30
2018-02-10T12:19:07.570Z,35.80
2018-02-10T12:21:41.072Z,34.23
2018-02-10T12:24:14.558Z,36.30
2018-02-10T12:26:48.078Z,36.03
2018-02-10T12:29:21.582Z,40.70
2018-02-10T12:31:55.847Z,38.77
2018-02-10T12:34:29.496Z,38.17
2018-02-10T12:37:03.094Z,38.03
2018-02-10T12:39:37.491Z,36.13
2018-02-10T12:42:11.090Z,33.57
2018-02-10T12:44:44.606Z,40.47
2018-02-10T12:47:18.098Z,37.40
2018-02-10T12:49:51.870Z,34.60
2018-02-10T12:52:25.354Z,33.07
2018-02-10T12:54:59.590Z,34.70
2018-02-10T12:57:33.071Z,35.37
2018-02-10T13:00:06.571Z,36.80
2018-02-10T13:02:53.259Z,40.07
2018-02-10T13:05:27.028Z,31.87
2018-02-10T13:08:00.506Z,36.83
2018-02-10T13:10:34.031Z,36.00
2018-02-10T13:13:08.403Z,34.83
2018-02-10T13:15:41.878Z,31.10
2018-02-10T13:18:15.523Z,33.67
2018-02-10T13:20:49.019Z,31.23
2018-02-10T13:23:22.507Z,29.07
2018-02-10T13:25:56.144Z,30.77
2018-02-10T13:28:29.656Z,31.00
2018-02-10T13:31:03.234Z,30.73
2018-02-10T13:33:36.907Z,29.50
2018-02-10T13:36:10.500Z,28.23
2018-02-10T13:38:44.078Z,27.03
2018-02-10T13:41:17.774Z,27.97
2018-02-10T13:43:51.435Z,31.00
2018-02-10T13:46:25.728Z,27.90
2018-02-10T13:48:59.446Z,26.03
2018-02-10T13:51:32.944Z,30.37
2018-02-10T13:54:06.446Z,29.13
2018-02-10T13:56:40.063Z,25.37
2018-02-10T13:59:14.431Z,25.90
2018-02-10T14:01:47.963Z,27.73
2018-02-10T14:04:21.566Z,23.20
2018-02-10T14:06:55.118Z,23.00
2018-02-10T14:09:28.725Z,23.60
2018-02-10T14:12:02.232Z,24.93
2018-02-10T14:14:35.741Z,26.23
2018-02-10T14:17:09.462Z,31.97
2018-02-10T14:19:42.947Z,37.53
2018-02-10T14:22:17.258Z,37.53
2018-02-10T14:24:50.770Z,38.83
2018-02-10T14:27:24.279Z,40.20
2018-02-10T14:29:57.758Z,41.90
2018-02-10T14:32:31.258Z,38.93
2018-02-10T14:35:04.867Z,36.57
2018-02-10T14:37:39.361Z,39.87
2018-02-10T14:40:12.956Z,38.07
2018-02-10T14:42:46.442Z,34.23
2018-02-10T14:45:19.935Z,32.23
2018-02-10T14:47:53.559Z,34.27
2018-02-10T14:50:27.458Z,32.60
2018-02-10T14:53:01.135Z,33.57
2018-02-10T14:55:34.746Z,31.13
2018-02-10T14:58:08.992Z,33.70
2018-02-10T15:00:42.559Z,32.50
2018-02-10T15:03:16.185Z,29.67
2018-02-10T15:05:49.698Z,27.07
2018-02-10T15:08:23.415Z,30.20
2018-02-10T15:10:57.094Z,31.13
2018-02-10T15:13:31.778Z,30.17
2018-02-10T15:16:05.439Z,29.57
2018-02-10T15:18:39.006Z,27.87
2018-02-10T15:21:12.759Z,29.43
2018-02-10T15:23:46.234Z,26.27
2018-02-10T15:26:19.772Z,24.53
2018-02-10T15:28:53.345Z,26.53
2018-02-10T15:31:38.555Z,24.10
2018-02-10T15:34:23.895Z,26.30
2018-02-10T15:36:57.369Z,27.13
2018-02-10T15:39:30.862Z,25.40
2018-02-10T15:42:04.478Z,28.63
2018-02-10T15:44:37.967Z,30.73
2018-02-10T15:47:11.575Z,33.00
2018-02-10T15:49:45.174Z,31.73
2018-02-10T15:52:18.662Z,33.90
2018-02-10T15:54:52.374Z,34.73
2018-02-10T15:57:25.974Z,34.00
2018-02-10T15:59:59.470Z,32.40
2018-02-10T16:02:32.954Z,34.63
2018-02-10T16:05:06.575Z,35.63
2018-02-10T16:07:40.971Z,37.37
2018-02-10T16:10:14.463Z,35.57
2018-02-10T16:12:48.071Z,33.07
2018-02-10T16:15:21.542Z,35.23
2018-02-10T16:17:55.022Z,36.50
2018-02-10T16:20:28.550Z,42.30
2018-02-10T16:23:02.184Z,39.10
2018-02-10T16:25:35.674Z,32.57
2018-02-10T16:28:09.287Z,36.90
2018-02-10T16:30:42.766Z,35.43
2018-02-10T16:33:16.270Z,31.17
2018-02-10T16:35:49.747Z,32.13
2018-02-10T16:38:23.230Z,37.37
2018-02-10T16:40:56.758Z,35.90
2018-02-10T16:43:30.288Z,36.90
2018-02-10T16:46:04.554Z,34.50
2018-02-10T16:48:38.027Z,35.83
2018-02-10T16:51:12.367Z,36.73
2018-02-10T16:53:46.675Z,36.43
2018-02-10T16:56:20.150Z,32.73
2018-02-10T16:58:53.671Z,34.70
2018-02-10T17:01:27.167Z,34.40
2018-02-10T17:04:00.780Z,32.00
2018-02-10T17:06:34.270Z,33.53
2018-02-10T17:09:07.766Z,31.43
2018-02-10T17:11:41.481Z,32.77
2018-02-10T17:14:14.988Z,30.83
2018-02-10T17:16:48.462Z,30.63
2018-02-10T17:19:21.950Z,30.87
2018-02-10T17:21:55.446Z,33.40
2018-02-10T17:24:29.054Z,32.30
2018-02-10T17:27:03.502Z,31.53
2018-02-10T17:29:36.993Z,30.63
2018-02-10T17:32:10.505Z,34.07
2018-02-10T17:34:43.984Z,32.37
2018-02-10T17:37:17.508Z,36.17
2018-02-10T17:39:51.071Z,33.93
2018-02-10T17:42:24.754Z,35.93
2018-02-10T17:44:58.254Z,35.93
2018-02-10T17:47:31.706Z,32.83
2018-02-10T17:50:05.986Z,35.07
2018-02-10T17:52:39.542Z,35.37
2018-02-10T17:55:13.255Z,35.63
2018-02-10T17:57:46.806Z,30.53
2018-02-10T18:00:21.206Z,32.17
2018-02-10T18:02:55.532Z,35.10
2018-02-10T18:05:29.039Z,30.97
2018-02-10T18:08:02.511Z,33.17
2018-02-10T18:10:36.003Z,30.60
2018-02-10T18:13:10.230Z,34.20
2018-02-10T18:15:43.746Z,32.03
2018-02-10T18:18:17.233Z,34.27
2018-02-10T18:20:50.735Z,33.40
2018-02-10T18:23:24.412Z,31.27
2018-02-10T18:25:58.847Z,31.77
2018-02-10T18:28:33.187Z,33.67
2018-02-10T18:31:06.674Z,32.47
2018-02-10T18:33:40.179Z,33.53
2018-02-10T18:36:13.739Z,35.30
2018-02-10T18:38:48.083Z,35.63
2018-02-10T18:41:22.501Z,33.00
2018-02-10T18:43:56.151Z,31.50
2018-02-10T18:46:29.879Z,30.03
2018-02-10T18:49:04.428Z,34.03
2018-02-10T18:51:38.138Z,32.87
2018-02-10T18:54:11.714Z,35.63
2018-02-10T18:56:45.368Z,31.07
2018-02-10T18:59:18.902Z,31.20
2018-02-10T19:01:53.371Z,33.33
2018-02-10T19:04:27.048Z,33.90
2018-02-10T19:07:02.615Z,35.50
2018-02-10T19:09:36.314Z,35.30
2018-02-10T19:12:10.633Z,34.43
2018-02-10T19:14:50.993Z,32.93
2018-02-10T19:17:24.515Z,32.23
2018-02-10T19:20:02.056Z,30.90
2018-02-10T19:22:35.856Z,31.10
2018-02-10T19:25:09.518Z,32.57
2018-02-10T19:27:43.266Z,31.40
2018-02-10T19:30:16.888Z,32.13
2018-02-10T19:32:50.378Z,34.60
2018-02-10T19:35:27.977Z,32.87
2018-02-10T19:38:01.751Z,33.67
2018-02-10T19:41:19.422Z,33.87
2018-02-10T19:43:52.943Z,36.27
2018-02-10T19:46:26.426Z,34.13
2018-02-10T19:48:59.927Z,35.30
2018-02-10T19:51:33.398Z,41.80
2018-02-10T19:54:06.902Z,39.00
2018-02-10T19:56:41.518Z,36.73
2018-02-10T19:59:15.031Z,35.67
2018-02-10T20:01:48.524Z,37.67
2018-02-10T20:04:22.937Z,39.63
2018-02-10T20:06:56.548Z,44.03
2018-02-10T20:09:30.083Z,43.23
2018-02-10T20:12:03.555Z,43.13
2018-02-10T20:14:37.949Z,43.07
2018-02-10T20:17:11.448Z,44.37
2018-02-10T20:19:45.071Z,44.27
2018-02-10T20:22:19.370Z,45.17
2018-02-10T20:24:52.847Z,42.47
2018-02-10T20:27:26.330Z,47.90
2018-02-10T20:29:59.950Z,43.47
2018-02-10T20:32:33.441Z,44.30
2018-02-10T20:35:06.938Z,40.87
2018-02-10T20:37:40.637Z,44.50
2018-02-10T20:40:14.244Z,41.47
2018-02-10T20:42:48.572Z,37.53
2018-02-10T20:45:22.098Z,39.30
2018-02-10T20:47:55.597Z,37.63
2018-02-10T20:50:29.137Z,41.30
2018-02-10T20:53:02.844Z,45.57
2018-02-10T20:55:36.399Z,40.73
2018-02-10T20:58:09.883Z,40.00
2018-02-10T21:00:43.427Z,34.87
2018-02-10T21:03:17.036Z,41.87
2018-02-10T21:05:51.284Z,39.33
2018-02-10T21:08:24.778Z,35.77
2018-02-10T21:10:58.279Z,33.70
2018-02-10T21:13:31.919Z,36.47
2018-02-10T21:16:06.287Z,36.90
2018-02-10T21:18:39.886Z,35.80
2018-02-10T21:21:13.399Z,35.20
2018-02-10T21:23:46.903Z,31.47
2018-02-10T21:26:20.473Z,35.13
2018-02-10T21:28:54.119Z,32.73
2018-02-10T21:31:27.815Z,35.77
2018-02-10T21:34:01.415Z,33.80
2018-02-10T21:36:35.932Z,29.17
2018-02-10T21:39:09.501Z,31.50
2018-02-10T21:41:43.194Z,31.87
2018-02-10T21:44:16.923Z,26.77
2018-02-10T21:46:50.534Z,25.93
2018-02-10T21:49:24.020Z,26.13
2018-02-10T21:51:57.668Z,25.67
2018-02-10T21:54:31.147Z,24.53
2018-02-10T21:57:04.651Z,23.20
2018-02-10T21:59:38.199Z,20.83
2018-02-10T22:02:11.942Z,23.97
2018-02-10T22:04:45.543Z,18.90
2018-02-10T22:07:19.059Z,21.17
2018-02-10T22:09:52.538Z,18.37
2018-02-10T22:12:26.022Z,18.87
2018-02-10T22:15:00.434Z,18.93
2018-02-10T22:17:33.971Z,16.87
2018-02-10T22:20:07.459Z,22.17
2018-02-10T22:22:41.766Z,19.50
2018-02-10T22:25:15.441Z,17.77
2018-02-10T22:27:48.963Z,18.03
2018-02-10T22:30:22.646Z,17.77
2018-02-10T22:32:56.151Z,20.13
2018-02-10T22:35:29.649Z,19.90
2018-02-10T22:38:03.183Z,20.27
2018-02-10T22:40:36.663Z,17.50
2018-02-10T22:43:11.075Z,17.23
2018-02-10T22:45:44.519Z,20.60
2018-02-10T22:48:18.099Z,20.90
2018-02-10T22:50:51.564Z,19.57
2018-02-10T22:53:25.108Z,19.87
2018-02-10T22:55:58.611Z,20.90
2018-02-10T22:58:32.247Z,20.27
2018-02-10T23:01:11.508Z,17.53
2018-02-10T23:03:45.123Z,19.87
2018-02-10T23:06:18.606Z,22.00
2018-02-10T23:08:52.147Z,20.13
2018-02-10T23:11:25.639Z,19.80
2018-02-10T23:13:59.174Z,20.13
2018-02-10T23:16:32.744Z,20.57
2018-02-10T23:19:06.452Z,22.57
2018-02-10T23:21:40.144Z,23.13
2018-02-10T23:24:14.406Z,18.80
2018-02-10T23:26:47.859Z,20.17
2018-02-10T23:29:21.443Z,21.60
2018-02-10T23:31:55.023Z,20.77
2018-02-10T23:34:29.415Z,20.97
2018-02-10T23:37:02.932Z,25.93
2018-02-10T23:39:36.491Z,25.80
2018-02-10T23:42:10.926Z,25.00
2018-02-10T23:44:44.450Z,21.97
2018-02-10T23:47:17.947Z,22.30
2018-02-10T23:49:52.407Z,22.17
2018-02-10T23:52:26.068Z,22.40
2018-02-10T23:54:59.815Z,20.03
2018-02-10T23:57:33.327Z,23.27
